sensor_id;sensor_type;location;lat;lon;timestamp;P1;durP1;ratioP1;P2;durP2;ratioP2
5890;SDS011;2971;52.420;7.080;2023-04-06T00:01:12;8.67;;;6.70;;
5890;SDS011;2971;52.420;7.080;2023-04-06T00:03:37;11.43;;;7.10;;
5890;SDS011;2971;52.420;7.080;2023-04-06T00:06:03;8.33;;;6.70;;
5890;SDS011;2971;52.420;7.080;2023-04-06T00:08:29;7.33;;;6.50;;
5890;SDS011;2971;52.420;7.080;2023-04-06T00:10:54;8.23;;;6.57;;
5890;SDS011;2971;52.420;7.080;2023-04-06T00:13:20;10.33;;;6.90;;
5890;SDS011;2971;52.420;7.080;2023-04-06T00:15:45;10.83;;;7.30;;
5890;SDS011;2971;52.420;7.080;2023-04-06T00:18:10;8.67;;;7.00;;
5890;SDS011;2971;52.420;7.080;2023-04-06T00:20:36;9.50;;;7.40;;
5890;SDS011;2971;52.420;7.080;2023-04-06T00:23:01;8.93;;;7.47;;
5890;SDS011;2971;52.420;7.080;2023-04-06T00:25:27;11.40;;;7.23;;
5890;SDS011;2971;52.420;7.080;2023-04-06T00:27:52;8.03;;;7.10;;
5890;SDS011;2971;52.420;7.080;2023-04-06T00:30:18;12.10;;;7.90;;
5890;SDS011;2971;52.420;7.080;2023-04-06T00:32:43;8.67;;;7.27;;
5890;SDS011;2971;52.420;7.080;2023-04-06T00:35:09;12.30;;;7.27;;
5890;SDS011;2971;52.420;7.080;2023-04-06T00:37:34;9.57;;;7.80;;
5890;SDS011;2971;52.420;7.080;2023-04-06T00:40:00;8.57;;;7.07;;
5890;SDS011;2971;52.420;7.080;2023-04-06T00:42:25;9.00;;;7.30;;
5890;SDS011;2971;52.420;7.080;2023-04-06T00:44:52;9.03;;;7.03;;
5890;SDS011;2971;52.420;7.080;2023-04-06T00:47:22;9.73;;;6.80;;
5890;SDS011;2971;52.420;7.080;2023-04-06T00:49:48;9.10;;;7.20;;
5890;SDS011;2971;52.420;7.080;2023-04-06T00:52:13;9.77;;;7.70;;
5890;SDS011;2971;52.420;7.080;2023-04-06T00:54:40;9.47;;;7.50;;
5890;SDS011;2971;52.420;7.080;2023-04-06T00:57:06;8.80;;;7.17;;
5890;SDS011;2971;52.420;7.080;2023-04-06T00:59:31;9.53;;;7.43;;
5890;SDS011;2971;52.420;7.080;2023-04-06T01:01:57;12.30;;;8.33;;
5890;SDS011;2971;52.420;7.080;2023-04-06T01:04:22;9.87;;;7.90;;
5890;SDS011;2971;52.420;7.080;2023-04-06T01:06:48;10.63;;;7.30;;
5890;SDS011;2971;52.420;7.080;2023-04-06T01:09:15;9.47;;;7.53;;
5890;SDS011;2971;52.420;7.080;2023-04-06T01:11:40;11.17;;;8.17;;
5890;SDS011;2971;52.420;7.080;2023-04-06T01:14:06;10.97;;;8.20;;
5890;SDS011;2971;52.420;7.080;2023-04-06T01:16:31;9.93;;;7.70;;
5890;SDS011;2971;52.420;7.080;2023-04-06T01:18:57;10.63;;;8.27;;
5890;SDS011;2971;52.420;7.080;2023-04-06T01:21:22;11.67;;;8.27;;
5890;SDS011;2971;52.420;7.080;2023-04-06T01:23:48;12.83;;;8.80;;
5890;SDS011;2971;52.420;7.080;2023-04-06T01:26:13;10.40;;;8.33;;
5890;SDS011;2971;52.420;7.080;2023-04-06T01:28:39;10.37;;;8.53;;
5890;SDS011;2971;52.420;7.080;2023-04-06T01:31:06;13.87;;;8.23;;
5890;SDS011;2971;52.420;7.080;2023-04-06T01:33:32;10.80;;;8.23;;
5890;SDS011;2971;52.420;7.080;2023-04-06T01:35:57;10.93;;;7.97;;
5890;SDS011;2971;52.420;7.080;2023-04-06T01:38:23;9.83;;;7.70;;
5890;SDS011;2971;52.420;7.080;2023-04-06T01:40:49;9.80;;;7.80;;
5890;SDS011;2971;52.420;7.080;2023-04-06T01:43:15;11.13;;;8.00;;
5890;SDS011;2971;52.420;7.080;2023-04-06T01:45:40;9.60;;;7.93;;
5890;SDS011;2971;52.420;7.080;2023-04-06T01:48:07;11.97;;;7.93;;
5890;SDS011;2971;52.420;7.080;2023-04-06T01:50:33;10.97;;;8.13;;
5890;SDS011;2971;52.420;7.080;2023-04-06T01:52:58;9.83;;;7.97;;
5890;SDS011;2971;52.420;7.080;2023-04-06T01:55:23;8.87;;;7.80;;
5890;SDS011;2971;52.420;7.080;2023-04-06T01:57:49;11.70;;;8.17;;
5890;SDS011;2971;52.420;7.080;2023-04-06T02:00:15;11.77;;;8.20;;
5890;SDS011;2971;52.420;7.080;2023-04-06T02:02:41;10.80;;;8.13;;
5890;SDS011;2971;52.420;7.080;2023-04-06T02:05:06;8.93;;;7.97;;
5890;SDS011;2971;52.420;7.080;2023-04-06T02:07:32;11.97;;;8.27;;
5890;SDS011;2971;52.420;7.080;2023-04-06T02:09:58;12.73;;;7.57;;
5890;SDS011;2971;52.420;7.080;2023-04-06T02:12:23;11.37;;;8.70;;
5890;SDS011;2971;52.420;7.080;2023-04-06T02:14:48;13.00;;;8.73;;
5890;SDS011;2971;52.420;7.080;2023-04-06T02:17:14;9.93;;;8.50;;
5890;SDS011;2971;52.420;7.080;2023-04-06T02:19:40;12.07;;;8.80;;
5890;SDS011;2971;52.420;7.080;2023-04-06T02:22:05;13.27;;;9.50;;
5890;SDS011;2971;52.420;7.080;2023-04-06T02:24:31;12.00;;;9.70;;
5890;SDS011;2971;52.420;7.080;2023-04-06T02:26:56;12.80;;;9.03;;
5890;SDS011;2971;52.420;7.080;2023-04-06T02:29:21;10.60;;;8.80;;
5890;SDS011;2971;52.420;7.080;2023-04-06T02:31:47;12.13;;;8.77;;
5890;SDS011;2971;52.420;7.080;2023-04-06T02:34:12;11.27;;;9.17;;
5890;SDS011;2971;52.420;7.080;2023-04-06T02:36:43;10.87;;;9.17;;
5890;SDS011;2971;52.420;7.080;2023-04-06T02:39:10;11.70;;;9.00;;
5890;SDS011;2971;52.420;7.080;2023-04-06T02:41:35;14.47;;;9.33;;
5890;SDS011;2971;52.420;7.080;2023-04-06T02:44:01;10.53;;;8.03;;
5890;SDS011;2971;52.420;7.080;2023-04-06T02:46:26;12.03;;;9.37;;
5890;SDS011;2971;52.420;7.080;2023-04-06T02:48:52;11.00;;;8.63;;
5890;SDS011;2971;52.420;7.080;2023-04-06T02:51:17;11.07;;;8.83;;
5890;SDS011;2971;52.420;7.080;2023-04-06T02:53:43;12.90;;;8.97;;
5890;SDS011;2971;52.420;7.080;2023-04-06T02:56:08;11.90;;;9.13;;
5890;SDS011;2971;52.420;7.080;2023-04-06T02:58:34;12.90;;;9.30;;
5890;SDS011;2971;52.420;7.080;2023-04-06T03:01:00;11.40;;;9.07;;
5890;SDS011;2971;52.420;7.080;2023-04-06T03:03:25;13.93;;;10.33;;
5890;SDS011;2971;52.420;7.080;2023-04-06T03:05:51;15.70;;;10.00;;
5890;SDS011;2971;52.420;7.080;2023-04-06T03:08:16;12.30;;;9.30;;
5890;SDS011;2971;52.420;7.080;2023-04-06T03:10:42;11.10;;;8.63;;
5890;SDS011;2971;52.420;7.080;2023-04-06T03:13:07;14.23;;;9.53;;
5890;SDS011;2971;52.420;7.080;2023-04-06T03:15:32;12.77;;;9.40;;
5890;SDS011;2971;52.420;7.080;2023-04-06T03:17:58;11.40;;;9.37;;
5890;SDS011;2971;52.420;7.080;2023-04-06T03:20:23;11.83;;;9.50;;
5890;SDS011;2971;52.420;7.080;2023-04-06T03:22:48;12.27;;;9.50;;
5890;SDS011;2971;52.420;7.080;2023-04-06T03:25:14;12.43;;;9.60;;
5890;SDS011;2971;52.420;7.080;2023-04-06T03:27:39;17.57;;;10.10;;
5890;SDS011;2971;52.420;7.080;2023-04-06T03:30:05;12.10;;;9.53;;
5890;SDS011;2971;52.420;7.080;2023-04-06T03:32:31;14.50;;;9.83;;
5890;SDS011;2971;52.420;7.080;2023-04-06T03:34:56;12.63;;;9.80;;
5890;SDS011;2971;52.420;7.080;2023-04-06T03:37:22;12.27;;;10.10;;
5890;SDS011;2971;52.420;7.080;2023-04-06T03:39:47;10.93;;;9.43;;
5890;SDS011;2971;52.420;7.080;2023-04-06T03:42:13;11.83;;;9.73;;
5890;SDS011;2971;52.420;7.080;2023-04-06T03:44:38;12.17;;;9.33;;
5890;SDS011;2971;52.420;7.080;2023-04-06T03:47:03;13.93;;;9.40;;
5890;SDS011;2971;52.420;7.080;2023-04-06T03:49:29;12.83;;;10.27;;
5890;SDS011;2971;52.420;7.080;2023-04-06T03:51:55;16.57;;;10.33;;
5890;SDS011;2971;52.420;7.080;2023-04-06T03:54:21;16.40;;;10.07;;
5890;SDS011;2971;52.420;7.080;2023-04-06T03:56:47;13.17;;;10.03;;
5890;SDS011;2971;52.420;7.080;2023-04-06T03:59:12;15.13;;;9.97;;
5890;SDS011;2971;52.420;7.080;2023-04-06T04:01:37;13.70;;;10.40;;
5890;SDS011;2971;52.420;7.080;2023-04-06T04:04:04;15.47;;;10.80;;
5890;SDS011;2971;52.420;7.080;2023-04-06T04:06:30;14.63;;;10.63;;
5890;SDS011;2971;52.420;7.080;2023-04-06T04:08:55;17.17;;;11.43;;
5890;SDS011;2971;52.420;7.080;2023-04-06T04:11:21;14.70;;;10.70;;
5890;SDS011;2971;52.420;7.080;2023-04-06T04:13:46;12.90;;;10.43;;
5890;SDS011;2971;52.420;7.080;2023-04-06T04:16:12;21.63;;;10.97;;
5890;SDS011;2971;52.420;7.080;2023-04-06T04:18:37;14.87;;;11.53;;
5890;SDS011;2971;52.420;7.080;2023-04-06T04:21:02;14.00;;;10.80;;
5890;SDS011;2971;52.420;7.080;2023-04-06T04:23:28;16.43;;;11.33;;
5890;SDS011;2971;52.420;7.080;2023-04-06T04:25:54;14.90;;;10.43;;
5890;SDS011;2971;52.420;7.080;2023-04-06T04:28:19;16.00;;;11.37;;
5890;SDS011;2971;52.420;7.080;2023-04-06T04:30:45;14.63;;;11.33;;
5890;SDS011;2971;52.420;7.080;2023-04-06T04:33:11;15.97;;;11.23;;
5890;SDS011;2971;52.420;7.080;2023-04-06T04:35:36;16.43;;;12.00;;
5890;SDS011;2971;52.420;7.080;2023-04-06T04:38:02;19.80;;;11.67;;
5890;SDS011;2971;52.420;7.080;2023-04-06T04:40:27;17.10;;;11.03;;
5890;SDS011;2971;52.420;7.080;2023-04-06T04:42:52;15.00;;;11.33;;
5890;SDS011;2971;52.420;7.080;2023-04-06T04:45:18;17.13;;;12.23;;
5890;SDS011;2971;52.420;7.080;2023-04-06T04:47:43;15.43;;;11.30;;
5890;SDS011;2971;52.420;7.080;2023-04-06T04:50:09;17.17;;;11.37;;
5890;SDS011;2971;52.420;7.080;2023-04-06T04:52:35;15.50;;;11.40;;
5890;SDS011;2971;52.420;7.080;2023-04-06T04:55:00;16.20;;;11.37;;
5890;SDS011;2971;52.420;7.080;2023-04-06T04:57:26;16.83;;;12.20;;
5890;SDS011;2971;52.420;7.080;2023-04-06T04:59:52;15.00;;;10.97;;
5890;SDS011;2971;52.420;7.080;2023-04-06T05:02:17;17.37;;;10.80;;
5890;SDS011;2971;52.420;7.080;2023-04-06T05:04:43;16.27;;;11.97;;
5890;SDS011;2971;52.420;7.080;2023-04-06T05:07:08;20.73;;;12.13;;
5890;SDS011;2971;52.420;7.080;2023-04-06T05:09:34;19.03;;;12.47;;
5890;SDS011;2971;52.420;7.080;2023-04-06T05:12:00;15.40;;;11.97;;
5890;SDS011;2971;52.420;7.080;2023-04-06T05:14:26;16.03;;;11.93;;
5890;SDS011;2971;52.420;7.080;2023-04-06T05:16:52;15.33;;;12.00;;
5890;SDS011;2971;52.420;7.080;2023-04-06T05:19:17;18.93;;;12.10;;
5890;SDS011;2971;52.420;7.080;2023-04-06T05:21:43;28.57;;;13.20;;
5890;SDS011;2971;52.420;7.080;2023-04-06T05:24:08;27.33;;;13.77;;
5890;SDS011;2971;52.420;7.080;2023-04-06T05:26:34;15.80;;;11.97;;
5890;SDS011;2971;52.420;7.080;2023-04-06T05:28:59;17.00;;;12.33;;
5890;SDS011;2971;52.420;7.080;2023-04-06T05:31:25;16.53;;;12.30;;
5890;SDS011;2971;52.420;7.080;2023-04-06T05:33:50;15.77;;;12.70;;
5890;SDS011;2971;52.420;7.080;2023-04-06T05:36:16;14.57;;;12.33;;
5890;SDS011;2971;52.420;7.080;2023-04-06T05:38:41;17.90;;;12.67;;
5890;SDS011;2971;52.420;7.080;2023-04-06T05:41:06;16.93;;;13.23;;
5890;SDS011;2971;52.420;7.080;2023-04-06T05:43:32;15.17;;;12.57;;
5890;SDS011;2971;52.420;7.080;2023-04-06T05:45:57;14.33;;;11.43;;
5890;SDS011;2971;52.420;7.080;2023-04-06T05:48:23;13.90;;;11.30;;
5890;SDS011;2971;52.420;7.080;2023-04-06T05:50:49;17.13;;;12.30;;
5890;SDS011;2971;52.420;7.080;2023-04-06T05:53:15;14.27;;;11.50;;
5890;SDS011;2971;52.420;7.080;2023-04-06T05:55:41;18.40;;;11.90;;
5890;SDS011;2971;52.420;7.080;2023-04-06T05:58:06;14.87;;;11.40;;
5890;SDS011;2971;52.420;7.080;2023-04-06T06:00:32;15.60;;;11.50;;
5890;SDS011;2971;52.420;7.080;2023-04-06T06:02:57;19.30;;;12.23;;
5890;SDS011;2971;52.420;7.080;2023-04-06T06:05:23;15.83;;;11.80;;
5890;SDS011;2971;52.420;7.080;2023-04-06T06:07:48;13.40;;;11.63;;
5890;SDS011;2971;52.420;7.080;2023-04-06T06:10:14;14.00;;;11.30;;
5890;SDS011;2971;52.420;7.080;2023-04-06T06:12:39;12.57;;;11.03;;
5890;SDS011;2971;52.420;7.080;2023-04-06T06:15:05;14.07;;;11.43;;
5890;SDS011;2971;52.420;7.080;2023-04-06T06:17:31;13.13;;;10.87;;
5890;SDS011;2971;52.420;7.080;2023-04-06T06:19:56;16.23;;;11.43;;
5890;SDS011;2971;52.420;7.080;2023-04-06T06:22:22;16.03;;;12.40;;
5890;SDS011;2971;52.420;7.080;2023-04-06T06:24:47;13.30;;;11.20;;
5890;SDS011;2971;52.420;7.080;2023-04-06T06:27:13;15.03;;;11.33;;
5890;SDS011;2971;52.420;7.080;2023-04-06T06:29:38;15.67;;;12.20;;
5890;SDS011;2971;52.420;7.080;2023-04-06T06:32:04;14.27;;;11.23;;
5890;SDS011;2971;52.420;7.080;2023-04-06T06:34:29;15.37;;;11.77;;
5890;SDS011;2971;52.420;7.080;2023-04-06T06:36:55;14.97;;;11.53;;
5890;SDS011;2971;52.420;7.080;2023-04-06T06:39:20;15.67;;;12.23;;
5890;SDS011;2971;52.420;7.080;2023-04-06T06:41:46;14.87;;;11.27;;
5890;SDS011;2971;52.420;7.080;2023-04-06T06:44:11;16.30;;;11.97;;
5890;SDS011;2971;52.420;7.080;2023-04-06T06:46:37;14.20;;;11.20;;
5890;SDS011;2971;52.420;7.080;2023-04-06T06:49:02;14.37;;;11.60;;
5890;SDS011;2971;52.420;7.080;2023-04-06T06:51:28;13.47;;;12.07;;
5890;SDS011;2971;52.420;7.080;2023-04-06T06:53:53;13.60;;;12.17;;
5890;SDS011;2971;52.420;7.080;2023-04-06T06:56:19;14.97;;;12.03;;
5890;SDS011;2971;52.420;7.080;2023-04-06T06:58:45;14.27;;;12.10;;
5890;SDS011;2971;52.420;7.080;2023-04-06T07:01:10;14.77;;;11.93;;
5890;SDS011;2971;52.420;7.080;2023-04-06T07:03:35;16.53;;;12.73;;
5890;SDS011;2971;52.420;7.080;2023-04-06T07:06:01;15.83;;;12.37;;
5890;SDS011;2971;52.420;7.080;2023-04-06T07:08:26;14.10;;;12.10;;
5890;SDS011;2971;52.420;7.080;2023-04-06T07:10:52;30.63;;;17.07;;
5890;SDS011;2971;52.420;7.080;2023-04-06T07:13:19;18.00;;;14.10;;
5890;SDS011;2971;52.420;7.080;2023-04-06T07:15:51;16.70;;;12.93;;
5890;SDS011;2971;52.420;7.080;2023-04-06T07:18:17;16.50;;;12.67;;
5890;SDS011;2971;52.420;7.080;2023-04-06T07:20:43;15.57;;;13.13;;
5890;SDS011;2971;52.420;7.080;2023-04-06T07:23:08;14.87;;;13.27;;
5890;SDS011;2971;52.420;7.080;2023-04-06T07:25:34;16.13;;;12.67;;
5890;SDS011;2971;52.420;7.080;2023-04-06T07:27:59;17.13;;;13.47;;
5890;SDS011;2971;52.420;7.080;2023-04-06T07:30:24;14.80;;;13.20;;
5890;SDS011;2971;52.420;7.080;2023-04-06T07:32:52;14.57;;;12.73;;
5890;SDS011;2971;52.420;7.080;2023-04-06T07:35:20;17.30;;;13.30;;
5890;SDS011;2971;52.420;7.080;2023-04-06T07:37:46;15.87;;;13.67;;
5890;SDS011;2971;52.420;7.080;2023-04-06T07:40:11;14.43;;;12.70;;
5890;SDS011;2971;52.420;7.080;2023-04-06T07:42:37;15.63;;;13.43;;
5890;SDS011;2971;52.420;7.080;2023-04-06T07:45:02;15.73;;;13.03;;
5890;SDS011;2971;52.420;7.080;2023-04-06T07:47:28;15.57;;;13.20;;
5890;SDS011;2971;52.420;7.080;2023-04-06T07:49:54;17.70;;;13.70;;
5890;SDS011;2971;52.420;7.080;2023-04-06T07:52:21;18.87;;;13.73;;
5890;SDS011;2971;52.420;7.080;2023-04-06T07:54:46;16.07;;;13.60;;
5890;SDS011;2971;52.420;7.080;2023-04-06T07:57:13;15.23;;;13.57;;
5890;SDS011;2971;52.420;7.080;2023-04-06T07:59:38;14.57;;;12.90;;
5890;SDS011;2971;52.420;7.080;2023-04-06T08:02:04;15.70;;;13.67;;
5890;SDS011;2971;52.420;7.080;2023-04-06T08:04:30;18.30;;;13.67;;
5890;SDS011;2971;52.420;7.080;2023-04-06T08:06:55;15.47;;;13.73;;
5890;SDS011;2971;52.420;7.080;2023-04-06T08:09:21;15.00;;;13.50;;
5890;SDS011;2971;52.420;7.080;2023-04-06T08:11:46;15.53;;;13.70;;
5890;SDS011;2971;52.420;7.080;2023-04-06T08:14:13;16.10;;;14.20;;
5890;SDS011;2971;52.420;7.080;2023-04-06T08:16:40;16.03;;;14.20;;
5890;SDS011;2971;52.420;7.080;2023-04-06T08:19:05;15.33;;;13.83;;
5890;SDS011;2971;52.420;7.080;2023-04-06T08:21:34;15.60;;;14.00;;
5890;SDS011;2971;52.420;7.080;2023-04-06T08:24:02;15.60;;;14.00;;
5890;SDS011;2971;52.420;7.080;2023-04-06T08:26:28;16.00;;;14.50;;
5890;SDS011;2971;52.420;7.080;2023-04-06T08:28:54;17.87;;;14.50;;
5890;SDS011;2971;52.420;7.080;2023-04-06T08:31:19;16.03;;;14.43;;
5890;SDS011;2971;52.420;7.080;2023-04-06T08:33:45;18.33;;;14.77;;
5890;SDS011;2971;52.420;7.080;2023-04-06T08:36:11;15.37;;;13.77;;
5890;SDS011;2971;52.420;7.080;2023-04-06T08:38:37;16.30;;;14.60;;
5890;SDS011;2971;52.420;7.080;2023-04-06T08:41:10;20.37;;;14.70;;
5890;SDS011;2971;52.420;7.080;2023-04-06T08:43:47;16.73;;;14.93;;
5890;SDS011;2971;52.420;7.080;2023-04-06T08:46:18;16.57;;;14.40;;
5890;SDS011;2971;52.420;7.080;2023-04-06T08:48:43;16.60;;;14.97;;
5890;SDS011;2971;52.420;7.080;2023-04-06T08:51:09;18.13;;;15.23;;
5890;SDS011;2971;52.420;7.080;2023-04-06T08:53:35;18.10;;;15.07;;
5890;SDS011;2971;52.420;7.080;2023-04-06T08:56:01;18.67;;;15.90;;
5890;SDS011;2971;52.420;7.080;2023-04-06T08:58:28;17.33;;;15.57;;
5890;SDS011;2971;52.420;7.080;2023-04-06T09:00:58;19.00;;;16.00;;
5890;SDS011;2971;52.420;7.080;2023-04-06T09:03:24;17.10;;;15.30;;
5890;SDS011;2971;52.420;7.080;2023-04-06T09:05:51;18.13;;;14.73;;
5890;SDS011;2971;52.420;7.080;2023-04-06T09:08:16;17.93;;;15.33;;
5890;SDS011;2971;52.420;7.080;2023-04-06T09:10:42;16.73;;;15.13;;
5890;SDS011;2971;52.420;7.080;2023-04-06T09:13:07;19.67;;;16.20;;
5890;SDS011;2971;52.420;7.080;2023-04-06T09:15:33;18.97;;;16.23;;
5890;SDS011;2971;52.420;7.080;2023-04-06T09:17:59;17.17;;;15.27;;
5890;SDS011;2971;52.420;7.080;2023-04-06T09:20:25;17.43;;;15.63;;
5890;SDS011;2971;52.420;7.080;2023-04-06T09:22:54;18.23;;;14.87;;
5890;SDS011;2971;52.420;7.080;2023-04-06T09:25:20;17.90;;;16.00;;
5890;SDS011;2971;52.420;7.080;2023-04-06T09:28:02;19.37;;;16.57;;
5890;SDS011;2971;52.420;7.080;2023-04-06T09:30:29;18.53;;;16.37;;
5890;SDS011;2971;52.420;7.080;2023-04-06T09:32:55;18.43;;;16.40;;
5890;SDS011;2971;52.420;7.080;2023-04-06T09:35:22;19.47;;;16.90;;
5890;SDS011;2971;52.420;7.080;2023-04-06T09:37:51;19.73;;;17.47;;
5890;SDS011;2971;52.420;7.080;2023-04-06T09:40:17;18.63;;;16.63;;
5890;SDS011;2971;52.420;7.080;2023-04-06T09:42:46;18.57;;;16.50;;
5890;SDS011;2971;52.420;7.080;2023-04-06T09:45:13;21.07;;;18.20;;
5890;SDS011;2971;52.420;7.080;2023-04-06T09:47:39;23.20;;;17.97;;
5890;SDS011;2971;52.420;7.080;2023-04-06T09:50:07;19.07;;;17.07;;
5890;SDS011;2971;52.420;7.080;2023-04-06T09:52:36;20.70;;;17.33;;
5890;SDS011;2971;52.420;7.080;2023-04-06T09:55:04;20.17;;;17.57;;
5890;SDS011;2971;52.420;7.080;2023-04-06T09:57:48;19.07;;;16.83;;
5890;SDS011;2971;52.420;7.080;2023-04-06T10:00:18;19.53;;;17.30;;
5890;SDS011;2971;52.420;7.080;2023-04-06T10:05:52;21.83;;;19.17;;
5890;SDS011;2971;52.420;7.080;2023-04-06T10:08:10;21.53;;;19.20;;
5890;SDS011;2971;52.420;7.080;2023-04-06T10:10:36;21.77;;;19.50;;
5890;SDS011;2971;52.420;7.080;2023-04-06T10:13:02;23.53;;;20.10;;
5890;SDS011;2971;52.420;7.080;2023-04-06T10:15:28;27.93;;;19.07;;
5890;SDS011;2971;52.420;7.080;2023-04-06T10:17:55;23.90;;;19.10;;
5890;SDS011;2971;52.420;7.080;2023-04-06T10:20:22;22.97;;;19.47;;
5890;SDS011;2971;52.420;7.080;2023-04-06T10:25:31;21.90;;;19.03;;
5890;SDS011;2971;52.420;7.080;2023-04-06T10:28:01;26.03;;;20.10;;
5890;SDS011;2971;52.420;7.080;2023-04-06T10:30:30;25.93;;;19.77;;
5890;SDS011;2971;52.420;7.080;2023-04-06T10:32:55;24.87;;;19.53;;
5890;SDS011;2971;52.420;7.080;2023-04-06T10:35:21;25.07;;;19.87;;
5890;SDS011;2971;52.420;7.080;2023-04-06T10:37:59;23.73;;;19.97;;
5890;SDS011;2971;52.420;7.080;2023-04-06T10:40:25;22.57;;;19.73;;
5890;SDS011;2971;52.420;7.080;2023-04-06T10:42:52;26.73;;;21.20;;
5890;SDS011;2971;52.420;7.080;2023-04-06T10:45:23;26.40;;;21.20;;
5890;SDS011;2971;52.420;7.080;2023-04-06T10:47:51;24.87;;;22.10;;
5890;SDS011;2971;52.420;7.080;2023-04-06T10:50:17;27.53;;;22.77;;
5890;SDS011;2971;52.420;7.080;2023-04-06T10:52:43;25.17;;;22.43;;
5890;SDS011;2971;52.420;7.080;2023-04-06T10:55:10;25.40;;;22.53;;
5890;SDS011;2971;52.420;7.080;2023-04-06T10:57:37;29.60;;;23.03;;
5890;SDS011;2971;52.420;7.080;2023-04-06T11:00:06;24.90;;;22.23;;
5890;SDS011;2971;52.420;7.080;2023-04-06T11:02:33;25.80;;;21.73;;
5890;SDS011;2971;52.420;7.080;2023-04-06T11:05:00;24.33;;;21.00;;
5890;SDS011;2971;52.420;7.080;2023-04-06T11:07:26;24.70;;;20.13;;
5890;SDS011;2971;52.420;7.080;2023-04-06T11:09:54;24.57;;;17.30;;
5890;SDS011;2971;52.420;7.080;2023-04-06T11:12:20;26.87;;;19.80;;
5890;SDS011;2971;52.420;7.080;2023-04-06T11:14:57;27.40;;;19.57;;
5890;SDS011;2971;52.420;7.080;2023-04-06T11:17:33;25.20;;;20.20;;
5890;SDS011;2971;52.420;7.080;2023-04-06T11:20:01;26.83;;;20.70;;
5890;SDS011;2971;52.420;7.080;2023-04-06T11:22:27;25.83;;;20.73;;
5890;SDS011;2971;52.420;7.080;2023-04-06T11:25:04;24.57;;;18.63;;
5890;SDS011;2971;52.420;7.080;2023-04-06T11:27:30;24.93;;;19.03;;
5890;SDS011;2971;52.420;7.080;2023-04-06T11:29:57;25.53;;;19.90;;
5890;SDS011;2971;52.420;7.080;2023-04-06T11:32:23;23.33;;;19.77;;
5890;SDS011;2971;52.420;7.080;2023-04-06T11:34:49;26.17;;;19.10;;
5890;SDS011;2971;52.420;7.080;2023-04-06T11:37:15;26.00;;;19.37;;
5890;SDS011;2971;52.420;7.080;2023-04-06T11:39:43;30.50;;;20.27;;
5890;SDS011;2971;52.420;7.080;2023-04-06T11:42:20;28.93;;;20.20;;
5890;SDS011;2971;52.420;7.080;2023-04-06T11:44:46;25.00;;;20.37;;
5890;SDS011;2971;52.420;7.080;2023-04-06T11:47:14;25.37;;;20.80;;
5890;SDS011;2971;52.420;7.080;2023-04-06T11:49:40;29.30;;;21.43;;
5890;SDS011;2971;52.420;7.080;2023-04-06T11:54:41;24.73;;;19.10;;
5890;SDS011;2971;52.420;7.080;2023-04-06T11:57:07;25.67;;;19.77;;
5890;SDS011;2971;52.420;7.080;2023-04-06T11:59:33;28.40;;;21.50;;
5890;SDS011;2971;52.420;7.080;2023-04-06T12:02:00;25.07;;;20.73;;
5890;SDS011;2971;52.420;7.080;2023-04-06T12:04:27;25.33;;;20.20;;
5890;SDS011;2971;52.420;7.080;2023-04-06T12:06:52;24.07;;;19.90;;
5890;SDS011;2971;52.420;7.080;2023-04-06T12:09:18;24.47;;;19.13;;
5890;SDS011;2971;52.420;7.080;2023-04-06T12:11:43;25.70;;;20.00;;
5890;SDS011;2971;52.420;7.080;2023-04-06T12:14:09;24.97;;;18.60;;
5890;SDS011;2971;52.420;7.080;2023-04-06T12:16:35;29.87;;;18.90;;
5890;SDS011;2971;52.420;7.080;2023-04-06T12:19:00;28.30;;;19.23;;
5890;SDS011;2971;52.420;7.080;2023-04-06T12:21:29;28.07;;;18.90;;
5890;SDS011;2971;52.420;7.080;2023-04-06T12:23:56;27.67;;;19.57;;
5890;SDS011;2971;52.420;7.080;2023-04-06T12:26:22;24.47;;;18.80;;
5890;SDS011;2971;52.420;7.080;2023-04-06T12:28:47;25.30;;;18.33;;
5890;SDS011;2971;52.420;7.080;2023-04-06T12:31:16;27.67;;;17.93;;
5890;SDS011;2971;52.420;7.080;2023-04-06T12:33:42;26.80;;;18.60;;
5890;SDS011;2971;52.420;7.080;2023-04-06T12:36:13;28.03;;;20.10;;
5890;SDS011;2971;52.420;7.080;2023-04-06T12:38:40;28.00;;;18.73;;
5890;SDS011;2971;52.420;7.080;2023-04-06T12:41:06;26.47;;;19.30;;
5890;SDS011;2971;52.420;7.080;2023-04-06T12:43:32;25.47;;;18.03;;
5890;SDS011;2971;52.420;7.080;2023-04-06T12:45:57;24.87;;;18.00;;
5890;SDS011;2971;52.420;7.080;2023-04-06T12:48:22;28.53;;;18.87;;
5890;SDS011;2971;52.420;7.080;2023-04-06T12:50:54;27.13;;;19.67;;
5890;SDS011;2971;52.420;7.080;2023-04-06T12:53:23;29.57;;;19.53;;
5890;SDS011;2971;52.420;7.080;2023-04-06T12:55:48;25.70;;;18.97;;
5890;SDS011;2971;52.420;7.080;2023-04-06T12:58:14;29.70;;;18.80;;
5890;SDS011;2971;52.420;7.080;2023-04-06T13:00:40;26.90;;;19.50;;
5890;SDS011;2971;52.420;7.080;2023-04-06T13:03:05;28.07;;;19.33;;
5890;SDS011;2971;52.420;7.080;2023-04-06T13:05:31;28.83;;;19.33;;
5890;SDS011;2971;52.420;7.080;2023-04-06T13:07:56;24.27;;;18.90;;
5890;SDS011;2971;52.420;7.080;2023-04-06T13:10:22;27.20;;;18.83;;
5890;SDS011;2971;52.420;7.080;2023-04-06T13:12:47;26.53;;;19.67;;
5890;SDS011;2971;52.420;7.080;2023-04-06T13:15:13;26.77;;;19.27;;
5890;SDS011;2971;52.420;7.080;2023-04-06T13:17:38;24.70;;;18.57;;
5890;SDS011;2971;52.420;7.080;2023-04-06T13:20:04;24.33;;;18.33;;
5890;SDS011;2971;52.420;7.080;2023-04-06T13:22:31;29.30;;;19.13;;
5890;SDS011;2971;52.420;7.080;2023-04-06T13:24:56;27.43;;;17.70;;
5890;SDS011;2971;52.420;7.080;2023-04-06T13:27:22;30.80;;;18.20;;
5890;SDS011;2971;52.420;7.080;2023-04-06T13:29:47;25.00;;;17.73;;
5890;SDS011;2971;52.420;7.080;2023-04-06T13:32:13;25.70;;;17.20;;
5890;SDS011;2971;52.420;7.080;2023-04-06T13:34:38;26.50;;;17.40;;
5890;SDS011;2971;52.420;7.080;2023-04-06T13:37:05;26.10;;;18.27;;
5890;SDS011;2971;52.420;7.080;2023-04-06T13:39:31;27.93;;;17.47;;
5890;SDS011;2971;52.420;7.080;2023-04-06T13:41:56;24.23;;;16.97;;
5890;SDS011;2971;52.420;7.080;2023-04-06T13:44:22;24.27;;;17.17;;
5890;SDS011;2971;52.420;7.080;2023-04-06T13:46:47;27.07;;;18.03;;
5890;SDS011;2971;52.420;7.080;2023-04-06T13:49:13;25.00;;;17.50;;
5890;SDS011;2971;52.420;7.080;2023-04-06T13:51:40;26.73;;;17.77;;
5890;SDS011;2971;52.420;7.080;2023-04-06T13:54:06;27.23;;;18.20;;
5890;SDS011;2971;52.420;7.080;2023-04-06T13:56:31;25.17;;;17.97;;
5890;SDS011;2971;52.420;7.080;2023-04-06T13:58:57;26.10;;;18.80;;
5890;SDS011;2971;52.420;7.080;2023-04-06T14:01:22;24.63;;;18.40;;
5890;SDS011;2971;52.420;7.080;2023-04-06T14:03:48;24.77;;;20.60;;
5890;SDS011;2971;52.420;7.080;2023-04-06T14:06:14;25.23;;;20.67;;
5890;SDS011;2971;52.420;7.080;2023-04-06T14:08:40;26.57;;;20.60;;
5890;SDS011;2971;52.420;7.080;2023-04-06T14:11:06;26.67;;;20.70;;
5890;SDS011;2971;52.420;7.080;2023-04-06T14:13:33;26.57;;;21.27;;
5890;SDS011;2971;52.420;7.080;2023-04-06T14:15:59;24.40;;;20.87;;
5890;SDS011;2971;52.420;7.080;2023-04-06T14:18:24;28.97;;;21.20;;
5890;SDS011;2971;52.420;7.080;2023-04-06T14:20:53;27.63;;;21.07;;
5890;SDS011;2971;52.420;7.080;2023-04-06T14:23:20;24.47;;;20.90;;
5890;SDS011;2971;52.420;7.080;2023-04-06T14:25:46;25.40;;;20.87;;
5890;SDS011;2971;52.420;7.080;2023-04-06T14:28:11;22.80;;;20.07;;
5890;SDS011;2971;52.420;7.080;2023-04-06T14:30:37;23.33;;;19.27;;
5890;SDS011;2971;52.420;7.080;2023-04-06T14:33:03;22.37;;;18.53;;
5890;SDS011;2971;52.420;7.080;2023-04-06T14:35:28;21.73;;;18.57;;
5890;SDS011;2971;52.420;7.080;2023-04-06T14:37:55;19.90;;;17.37;;
5890;SDS011;2971;52.420;7.080;2023-04-06T14:40:22;23.00;;;18.40;;
5890;SDS011;2971;52.420;7.080;2023-04-06T14:42:48;22.70;;;17.73;;
5890;SDS011;2971;52.420;7.080;2023-04-06T14:45:15;20.80;;;17.13;;
5890;SDS011;2971;52.420;7.080;2023-04-06T14:47:42;21.87;;;16.83;;
5890;SDS011;2971;52.420;7.080;2023-04-06T14:50:07;23.23;;;16.30;;
5890;SDS011;2971;52.420;7.080;2023-04-06T14:52:33;17.00;;;15.20;;
5890;SDS011;2971;52.420;7.080;2023-04-06T14:54:58;17.10;;;14.77;;